sensor_id;sensor_type;location;lat;lon;timestamp;temperature;humidity
48686;DHT22;34485;51.536;3.816;2023-12-04T00:00:41;2.90;99.90
48686;DHT22;34485;51.536;3.816;2023-12-04T00:03:06;2.90;99.90
48686;DHT22;34485;51.536;3.816;2023-12-04T00:05:32;3.00;99.90
48686;DHT22;34485;51.536;3.816;2023-12-04T00:07:58;3.00;99.90
48686;DHT22;34485;51.536;3.816;2023-12-04T00:10:24;3.00;99.90
48686;DHT22;34485;51.536;3.816;2023-12-04T00:12:49;3.00;99.90
48686;DHT22;34485;51.536;3.816;2023-12-04T00:15:19;3.00;99.90
48686;DHT22;34485;51.536;3.816;2023-12-04T00:17:45;3.10;99.90
48686;DHT22;34485;51.536;3.816;2023-12-04T00:20:10;3.10;99.90
48686;DHT22;34485;51.536;3.816;2023-12-04T00:22:37;3.10;99.90
48686;DHT22;34485;51.536;3.816;2023-12-04T00:25:03;3.10;99.90
48686;DHT22;34485;51.536;3.816;2023-12-04T00:27:30;3.20;99.90
48686;DHT22;34485;51.536;3.816;2023-12-04T00:29:56;3.10;99.90
48686;DHT22;34485;51.536;3.816;2023-12-04T00:32:21;3.10;99.90
48686;DHT22;34485;51.536;3.816;2023-12-04T00:34:47;3.00;99.90
48686;DHT22;34485;51.536;3.816;2023-12-04T00:37:13;3.00;99.90
48686;DHT22;34485;51.536;3.816;2023-12-04T00:39:38;3.00;99.90
48686;DHT22;34485;51.536;3.816;2023-12-04T00:42:05;3.00;99.90
48686;DHT22;34485;51.536;3.816;2023-12-04T00:44:30;3.00;99.90
48686;DHT22;34485;51.536;3.816;2023-12-04T00:46:56;3.00;99.90
48686;DHT22;34485;51.536;3.816;2023-12-04T00:49:23;3.00;99.90
48686;DHT22;34485;51.536;3.816;2023-12-04T00:51:49;3.00;99.90
48686;DHT22;34485;51.536;3.816;2023-12-04T00:54:14;3.00;99.90
48686;DHT22;34485;51.536;3.816;2023-12-04T00:56:40;3.00;99.90
48686;DHT22;34485;51.536;3.816;2023-12-04T00:59:08;3.10;99.90
48686;DHT22;34485;51.536;3.816;2023-12-04T01:01:36;3.00;99.90
48686;DHT22;34485;51.536;3.816;2023-12-04T01:04:01;3.10;99.90
48686;DHT22;34485;51.536;3.816;2023-12-04T01:06:27;3.00;99.90
48686;DHT22;34485;51.536;3.816;2023-12-04T01:08:53;3.00;99.90
48686;DHT22;34485;51.536;3.816;2023-12-04T01:11:19;3.00;99.90
48686;DHT22;34485;51.536;3.816;2023-12-04T01:13:45;3.00;99.90
48686;DHT22;34485;51.536;3.816;2023-12-04T01:16:11;3.00;99.90
48686;DHT22;34485;51.536;3.816;2023-12-04T01:18:37;3.00;99.90
48686;DHT22;34485;51.536;3.816;2023-12-04T01:21:03;3.00;99.90
48686;DHT22;34485;51.536;3.816;2023-12-04T01:23:29;2.90;99.90
48686;DHT22;34485;51.536;3.816;2023-12-04T01:25:54;2.90;99.90
48686;DHT22;34485;51.536;3.816;2023-12-04T01:28:20;2.90;99.90
48686;DHT22;34485;51.536;3.816;2023-12-04T01:30:46;2.90;99.90
48686;DHT22;34485;51.536;3.816;2023-12-04T01:33:11;2.90;99.90
48686;DHT22;34485;51.536;3.816;2023-12-04T01:35:37;2.90;99.90
48686;DHT22;34485;51.536;3.816;2023-12-04T01:38:03;2.90;99.90
48686;DHT22;34485;51.536;3.816;2023-12-04T01:40:29;2.90;99.90
48686;DHT22;34485;51.536;3.816;2023-12-04T01:42:54;2.90;99.90
48686;DHT22;34485;51.536;3.816;2023-12-04T01:45:20;3.00;99.90
48686;DHT22;34485;51.536;3.816;2023-12-04T01:47:46;3.00;99.90
48686;DHT22;34485;51.536;3.816;2023-12-04T01:50:12;3.00;99.90
48686;DHT22;34485;51.536;3.816;2023-12-04T01:52:40;3.00;99.90
48686;DHT22;34485;51.536;3.816;2023-12-04T01:55:07;3.00;99.90
48686;DHT22;34485;51.536;3.816;2023-12-04T01:57:34;3.00;99.90
48686;DHT22;34485;51.536;3.816;2023-12-04T02:00:00;3.00;99.90
48686;DHT22;34485;51.536;3.816;2023-12-04T02:02:28;3.00;99.90
48686;DHT22;34485;51.536;3.816;2023-12-04T02:04:57;3.00;99.90
48686;DHT22;34485;51.536;3.816;2023-12-04T02:07:24;3.00;99.90
48686;DHT22;34485;51.536;3.816;2023-12-04T02:09:50;3.00;99.90
48686;DHT22;34485;51.536;3.816;2023-12-04T02:12:16;3.00;99.90
48686;DHT22;34485;51.536;3.816;2023-12-04T02:14:42;3.10;99.90
48686;DHT22;34485;51.536;3.816;2023-12-04T02:17:09;3.10;99.90
48686;DHT22;34485;51.536;3.816;2023-12-04T02:19:36;3.10;99.90
48686;DHT22;34485;51.536;3.816;2023-12-04T02:22:01;3.10;99.90
48686;DHT22;34485;51.536;3.816;2023-12-04T02:24:27;3.10;99.90
48686;DHT22;34485;51.536;3.816;2023-12-04T02:26:59;3.00;99.90
48686;DHT22;34485;51.536;3.816;2023-12-04T02:29:31;3.10;99.90
48686;DHT22;34485;51.536;3.816;2023-12-04T02:31:58;3.10;99.90
48686;DHT22;34485;51.536;3.816;2023-12-04T02:34:28;3.10;99.90
48686;DHT22;34485;51.536;3.816;2023-12-04T02:36:55;3.10;99.90
48686;DHT22;34485;51.536;3.816;2023-12-04T02:39:22;3.10;99.90
48686;DHT22;34485;51.536;3.816;2023-12-04T02:41:48;3.10;99.90
48686;DHT22;34485;51.536;3.816;2023-12-04T02:44:14;3.10;99.90
48686;DHT22;34485;51.536;3.816;2023-12-04T02:46:39;3.10;99.90
48686;DHT22;34485;51.536;3.816;2023-12-04T02:49:05;3.20;99.90
48686;DHT22;34485;51.536;3.816;2023-12-04T02:51:31;3.10;99.90
48686;DHT22;34485;51.536;3.816;2023-12-04T02:53:57;3.10;99.90
48686;DHT22;34485;51.536;3.816;2023-12-04T02:56:22;3.10;99.90
48686;DHT22;34485;51.536;3.816;2023-12-04T02:58:48;3.10;99.90
48686;DHT22;34485;51.536;3.816;2023-12-04T03:01:14;3.10;99.90
48686;DHT22;34485;51.536;3.816;2023-12-04T03:03:39;3.10;99.90
48686;DHT22;34485;51.536;3.816;2023-12-04T03:06:05;3.10;99.90
48686;DHT22;34485;51.536;3.816;2023-12-04T03:08:31;3.20;99.90
48686;DHT22;34485;51.536;3.816;2023-12-04T03:10:57;3.20;99.90
48686;DHT22;34485;51.536;3.816;2023-12-04T03:13:23;3.20;99.90
48686;DHT22;34485;51.536;3.816;2023-12-04T03:15:48;3.20;99.90
48686;DHT22;34485;51.536;3.816;2023-12-04T03:18:14;3.20;99.90
48686;DHT22;34485;51.536;3.816;2023-12-04T03:20:39;3.20;99.90
48686;DHT22;34485;51.536;3.816;2023-12-04T03:23:05;3.30;99.90
48686;DHT22;34485;51.536;3.816;2023-12-04T03:25:31;3.30;99.90
48686;DHT22;34485;51.536;3.816;2023-12-04T03:27:56;3.30;99.90
48686;DHT22;34485;51.536;3.816;2023-12-04T03:30:22;3.30;99.90
48686;DHT22;34485;51.536;3.816;2023-12-04T03:32:48;3.20;99.90
48686;DHT22;34485;51.536;3.816;2023-12-04T03:35:14;3.30;99.90
48686;DHT22;34485;51.536;3.816;2023-12-04T03:37:39;3.20;99.90
48686;DHT22;34485;51.536;3.816;2023-12-04T03:40:05;3.20;99.90
48686;DHT22;34485;51.536;3.816;2023-12-04T03:42:31;3.20;99.90
48686;DHT22;34485;51.536;3.816;2023-12-04T03:44:57;3.20;99.90
48686;DHT22;34485;51.536;3.816;2023-12-04T03:47:22;3.20;99.90
48686;DHT22;34485;51.536;3.816;2023-12-04T03:49:49;3.20;99.90
48686;DHT22;34485;51.536;3.816;2023-12-04T03:52:14;3.20;99.90
48686;DHT22;34485;51.536;3.816;2023-12-04T03:54:40;3.20;99.90
48686;DHT22;34485;51.536;3.816;2023-12-04T03:57:06;3.20;99.90
48686;DHT22;34485;51.536;3.816;2023-12-04T03:59:31;3.10;99.90
48686;DHT22;34485;51.536;3.816;2023-12-04T04:01:57;3.10;99.90
48686;DHT22;34485;51.536;3.816;2023-12-04T04:04:23;3.20;99.90
48686;DHT22;34485;51.536;3.816;2023-12-04T04:06:48;3.20;99.90
48686;DHT22;34485;51.536;3.816;2023-12-04T04:09:14;3.10;99.90
48686;DHT22;34485;51.536;3.816;2023-12-04T04:11:40;3.10;99.90
48686;DHT22;34485;51.536;3.816;2023-12-04T04:14:05;3.10;99.90
48686;DHT22;34485;51.536;3.816;2023-12-04T04:16:31;3.20;99.90
48686;DHT22;34485;51.536;3.816;2023-12-04T04:18:57;3.20;99.90
48686;DHT22;34485;51.536;3.816;2023-12-04T04:21:22;3.10;99.90
48686;DHT22;34485;51.536;3.816;2023-12-04T04:23:48;3.20;99.90
48686;DHT22;34485;51.536;3.816;2023-12-04T04:26:14;3.20;99.90
48686;DHT22;34485;51.536;3.816;2023-12-04T04:28:39;3.30;99.90
48686;DHT22;34485;51.536;3.816;2023-12-04T04:31:05;3.20;99.90
48686;DHT22;34485;51.536;3.816;2023-12-04T04:33:31;3.30;99.90
48686;DHT22;34485;51.536;3.816;2023-12-04T04:35:57;3.30;99.90
48686;DHT22;34485;51.536;3.816;2023-12-04T04:38:22;3.30;99.90
48686;DHT22;34485;51.536;3.816;2023-12-04T04:40:48;3.30;99.90
48686;DHT22;34485;51.536;3.816;2023-12-04T04:43:14;3.30;99.90
48686;DHT22;34485;51.536;3.816;2023-12-04T04:45:39;3.30;99.90
48686;DHT22;34485;51.536;3.816;2023-12-04T04:48:05;3.30;99.90
48686;DHT22;34485;51.536;3.816;2023-12-04T04:50:31;3.30;99.90
48686;DHT22;34485;51.536;3.816;2023-12-04T04:52:56;3.30;99.90
48686;DHT22;34485;51.536;3.816;2023-12-04T04:55:22;3.40;99.90
48686;DHT22;34485;51.536;3.816;2023-12-04T04:57:47;3.40;99.90
48686;DHT22;34485;51.536;3.816;2023-12-04T05:00:13;3.40;99.90
48686;DHT22;34485;51.536;3.816;2023-12-04T05:02:41;3.40;99.90
48686;DHT22;34485;51.536;3.816;2023-12-04T05:05:07;3.40;99.90
48686;DHT22;34485;51.536;3.816;2023-12-04T05:07:33;3.50;99.90
48686;DHT22;34485;51.536;3.816;2023-12-04T05:09:58;3.40;99.90
48686;DHT22;34485;51.536;3.816;2023-12-04T05:12:24;3.40;99.90
48686;DHT22;34485;51.536;3.816;2023-12-04T05:14:50;3.40;99.90
48686;DHT22;34485;51.536;3.816;2023-12-04T05:17:15;3.40;99.90
48686;DHT22;34485;51.536;3.816;2023-12-04T05:19:41;3.40;99.90
48686;DHT22;34485;51.536;3.816;2023-12-04T05:22:08;3.40;99.90
48686;DHT22;34485;51.536;3.816;2023-12-04T05:24:34;3.40;99.90
48686;DHT22;34485;51.536;3.816;2023-12-04T05:27:01;3.40;99.90
48686;DHT22;34485;51.536;3.816;2023-12-04T05:29:27;3.40;99.90
48686;DHT22;34485;51.536;3.816;2023-12-04T05:31:53;3.40;99.90
48686;DHT22;34485;51.536;3.816;2023-12-04T05:34:19;3.40;99.90
48686;DHT22;34485;51.536;3.816;2023-12-04T05:36:44;3.40;99.90
48686;DHT22;34485;51.536;3.816;2023-12-04T05:39:10;3.40;99.90
48686;DHT22;34485;51.536;3.816;2023-12-04T05:41:36;3.40;99.90
48686;DHT22;34485;51.536;3.816;2023-12-04T05:44:01;3.40;99.90
48686;DHT22;34485;51.536;3.816;2023-12-04T05:46:27;3.40;99.90
48686;DHT22;34485;51.536;3.816;2023-12-04T05:48:53;3.50;99.90
48686;DHT22;34485;51.536;3.816;2023-12-04T05:51:19;3.50;99.90
48686;DHT22;34485;51.536;3.816;2023-12-04T05:53:44;3.50;99.90
48686;DHT22;34485;51.536;3.816;2023-12-04T05:56:10;3.50;99.90
48686;DHT22;34485;51.536;3.816;2023-12-04T05:58:36;3.50;99.90
48686;DHT22;34485;51.536;3.816;2023-12-04T06:01:02;3.50;99.90
48686;DHT22;34485;51.536;3.816;2023-12-04T06:03:28;3.50;99.90
48686;DHT22;34485;51.536;3.816;2023-12-04T06:05:53;3.50;99.90
48686;DHT22;34485;51.536;3.816;2023-12-04T06:08:19;3.50;99.90
48686;DHT22;34485;51.536;3.816;2023-12-04T06:10:46;3.50;99.90
48686;DHT22;34485;51.536;3.816;2023-12-04T06:13:11;3.50;99.90
48686;DHT22;34485;51.536;3.816;2023-12-04T06:15:37;3.50;99.90
48686;DHT22;34485;51.536;3.816;2023-12-04T06:18:03;3.50;99.90
48686;DHT22;34485;51.536;3.816;2023-12-04T06:20:30;3.50;99.90
48686;DHT22;34485;51.536;3.816;2023-12-04T06:22:55;3.40;99.90
48686;DHT22;34485;51.536;3.816;2023-12-04T06:25:21;3.40;99.90
48686;DHT22;34485;51.536;3.816;2023-12-04T06:27:48;3.40;99.90
48686;DHT22;34485;51.536;3.816;2023-12-04T06:30:14;3.40;99.90
48686;DHT22;34485;51.536;3.816;2023-12-04T06:32:40;3.40;99.90
48686;DHT22;34485;51.536;3.816;2023-12-04T06:35:07;3.40;99.90
48686;DHT22;34485;51.536;3.816;2023-12-04T06:37:33;3.40;99.90
48686;DHT22;34485;51.536;3.816;2023-12-04T06:40:00;3.50;99.90
48686;DHT22;34485;51.536;3.816;2023-12-04T06:42:28;3.50;99.90
48686;DHT22;34485;51.536;3.816;2023-12-04T06:44:54;3.50;99.90
48686;DHT22;34485;51.536;3.816;2023-12-04T06:47:22;3.40;99.90
48686;DHT22;34485;51.536;3.816;2023-12-04T06:49:48;3.50;99.90
48686;DHT22;34485;51.536;3.816;2023-12-04T06:52:13;3.40;99.90
48686;DHT22;34485;51.536;3.816;2023-12-04T06:54:39;3.40;99.90
48686;DHT22;34485;51.536;3.816;2023-12-04T06:57:05;3.40;99.90
48686;DHT22;34485;51.536;3.816;2023-12-04T06:59:31;3.40;99.90
48686;DHT22;34485;51.536;3.816;2023-12-04T07:01:57;3.40;99.90
48686;DHT22;34485;51.536;3.816;2023-12-04T07:04:22;3.40;99.90
48686;DHT22;34485;51.536;3.816;2023-12-04T07:06:48;3.40;99.90
48686;DHT22;34485;51.536;3.816;2023-12-04T07:09:15;3.40;99.90
48686;DHT22;34485;51.536;3.816;2023-12-04T07:11:42;3.40;99.90
48686;DHT22;34485;51.536;3.816;2023-12-04T07:14:09;3.40;99.90
48686;DHT22;34485;51.536;3.816;2023-12-04T07:16:44;3.40;99.90
48686;DHT22;34485;51.536;3.816;2023-12-04T07:19:10;3.40;99.90
48686;DHT22;34485;51.536;3.816;2023-12-04T07:21:37;3.40;99.90
48686;DHT22;34485;51.536;3.816;2023-12-04T07:24:03;3.40;99.90
48686;DHT22;34485;51.536;3.816;2023-12-04T07:26:29;3.40;99.90
48686;DHT22;34485;51.536;3.816;2023-12-04T07:28:55;3.40;99.90
48686;DHT22;34485;51.536;3.816;2023-12-04T07:31:21;3.40;99.90
48686;DHT22;34485;51.536;3.816;2023-12-04T07:33:46;3.40;99.90
48686;DHT22;34485;51.536;3.816;2023-12-04T07:36:13;3.40;99.90
48686;DHT22;34485;51.536;3.816;2023-12-04T07:38:39;3.50;99.90
48686;DHT22;34485;51.536;3.816;2023-12-04T07:41:05;3.40;99.90
48686;DHT22;34485;51.536;3.816;2023-12-04T07:43:31;3.40;99.90
48686;DHT22;34485;51.536;3.816;2023-12-04T07:45:56;3.50;99.90
48686;DHT22;34485;51.536;3.816;2023-12-04T07:48:23;3.50;99.90
48686;DHT22;34485;51.536;3.816;2023-12-04T07:50:48;3.50;99.90
48686;DHT22;34485;51.536;3.816;2023-12-04T07:53:14;3.50;99.90
48686;DHT22;34485;51.536;3.816;2023-12-04T07:55:40;3.50;99.90
48686;DHT22;34485;51.536;3.816;2023-12-04T07:58:06;3.50;99.90
48686;DHT22;34485;51.536;3.816;2023-12-04T08:00:31;3.50;99.90
48686;DHT22;34485;51.536;3.816;2023-12-04T08:02:58;3.50;99.90
48686;DHT22;34485;51.536;3.816;2023-12-04T08:05:24;3.50;99.90
48686;DHT22;34485;51.536;3.816;2023-12-04T08:07:49;3.50;99.90
48686;DHT22;34485;51.536;3.816;2023-12-04T08:10:15;3.50;99.90
48686;DHT22;34485;51.536;3.816;2023-12-04T08:12:44;3.60;99.90
48686;DHT22;34485;51.536;3.816;2023-12-04T08:15:11;3.60;99.90
48686;DHT22;34485;51.536;3.816;2023-12-04T08:17:36;3.60;99.90
48686;DHT22;34485;51.536;3.816;2023-12-04T08:20:02;3.60;99.90
48686;DHT22;34485;51.536;3.816;2023-12-04T08:22:29;3.60;99.90
48686;DHT22;34485;51.536;3.816;2023-12-04T08:24:55;3.60;99.90
48686;DHT22;34485;51.536;3.816;2023-12-04T08:27:21;3.70;99.90
48686;DHT22;34485;51.536;3.816;2023-12-04T08:29:46;3.70;99.90
48686;DHT22;34485;51.536;3.816;2023-12-04T08:32:12;3.70;99.90
48686;DHT22;34485;51.536;3.816;2023-12-04T08:34:37;3.80;99.90
48686;DHT22;34485;51.536;3.816;2023-12-04T08:37:03;3.80;99.90
48686;DHT22;34485;51.536;3.816;2023-12-04T08:39:29;3.80;99.90
48686;DHT22;34485;51.536;3.816;2023-12-04T08:41:55;3.80;99.90
48686;DHT22;34485;51.536;3.816;2023-12-04T08:44:20;3.80;99.90
48686;DHT22;34485;51.536;3.816;2023-12-04T08:46:46;3.80;99.90
48686;DHT22;34485;51.536;3.816;2023-12-04T08:49:12;3.80;99.90
48686;DHT22;34485;51.536;3.816;2023-12-04T08:51:37;3.80;99.90
48686;DHT22;34485;51.536;3.816;2023-12-04T08:54:04;3.80;99.90
48686;DHT22;34485;51.536;3.816;2023-12-04T08:56:29;3.80;99.90
48686;DHT22;34485;51.536;3.816;2023-12-04T08:58:55;3.80;99.90
48686;DHT22;34485;51.536;3.816;2023-12-04T09:01:23;3.80;99.90
48686;DHT22;34485;51.536;3.816;2023-12-04T09:03:48;3.80;99.90
48686;DHT22;34485;51.536;3.816;2023-12-04T09:06:14;3.80;99.90
48686;DHT22;34485;51.536;3.816;2023-12-04T09:08:41;3.80;99.90
48686;DHT22;34485;51.536;3.816;2023-12-04T09:11:07;3.80;99.90
48686;DHT22;34485;51.536;3.816;2023-12-04T09:13:32;3.80;99.90
48686;DHT22;34485;51.536;3.816;2023-12-04T09:15:59;3.80;99.90
48686;DHT22;34485;51.536;3.816;2023-12-04T09:18:25;3.90;99.90
48686;DHT22;34485;51.536;3.816;2023-12-04T09:20:51;3.90;99.90
48686;DHT22;34485;51.536;3.816;2023-12-04T09:23:16;3.90;99.90
48686;DHT22;34485;51.536;3.816;2023-12-04T09:25:42;3.90;99.90
48686;DHT22;34485;51.536;3.816;2023-12-04T09:28:08;3.90;99.90
48686;DHT22;34485;51.536;3.816;2023-12-04T09:30:35;3.80;99.90
48686;DHT22;34485;51.536;3.816;2023-12-04T09:33:01;3.90;99.90
48686;DHT22;34485;51.536;3.816;2023-12-04T09:35:27;3.90;99.90
48686;DHT22;34485;51.536;3.816;2023-12-04T09:37:52;3.80;99.90
48686;DHT22;34485;51.536;3.816;2023-12-04T09:40:19;3.90;99.90
48686;DHT22;34485;51.536;3.816;2023-12-04T09:42:46;3.80;99.90
48686;DHT22;34485;51.536;3.816;2023-12-04T09:45:12;3.80;99.90
48686;DHT22;34485;51.536;3.816;2023-12-04T09:47:38;3.80;99.90
48686;DHT22;34485;51.536;3.816;2023-12-04T09:50:05;3.90;99.90
48686;DHT22;34485;51.536;3.816;2023-12-04T09:52:31;3.90;99.90
48686;DHT22;34485;51.536;3.816;2023-12-04T09:54:59;4.00;99.90
48686;DHT22;34485;51.536;3.816;2023-12-04T09:57:25;4.10;99.90
48686;DHT22;34485;51.536;3.816;2023-12-04T09:59:52;4.20;99.90
48686;DHT22;34485;51.536;3.816;2023-12-04T10:02:19;4.30;99.90
48686;DHT22;34485;51.536;3.816;2023-12-04T10:04:45;4.40;99.90
48686;DHT22;34485;51.536;3.816;2023-12-04T10:07:11;4.40;99.90
48686;DHT22;34485;51.536;3.816;2023-12-04T10:09:37;4.50;99.90
48686;DHT22;34485;51.536;3.816;2023-12-04T10:12:03;4.50;99.90
48686;DHT22;34485;51.536;3.816;2023-12-04T10:14:31;4.40;99.90
48686;DHT22;34485;51.536;3.816;2023-12-04T10:16:57;4.40;99.90
48686;DHT22;34485;51.536;3.816;2023-12-04T10:19:25;4.50;99.90
48686;DHT22;34485;51.536;3.816;2023-12-04T10:21:56;4.40;99.90
48686;DHT22;34485;51.536;3.816;2023-12-04T10:24:35;4.40;99.90
48686;DHT22;34485;51.536;3.816;2023-12-04T10:27:05;4.50;99.90
48686;DHT22;34485;51.536;3.816;2023-12-04T10:29:49;4.40;99.90
48686;DHT22;34485;51.536;3.816;2023-12-04T10:32:19;4.50;99.90
48686;DHT22;34485;51.536;3.816;2023-12-04T10:34:47;4.50;99.90
48686;DHT22;34485;51.536;3.816;2023-12-04T10:37:13;4.50;99.90
48686;DHT22;34485;51.536;3.816;2023-12-04T10:39:49;4.50;99.90
48686;DHT22;34485;51.536;3.816;2023-12-04T10:42:29;4.50;99.90
48686;DHT22;34485;51.536;3.816;2023-12-04T10:44:58;4.50;99.90
48686;DHT22;34485;51.536;3.816;2023-12-04T10:47:25;4.40;99.90
48686;DHT22;34485;51.536;3.816;2023-12-04T10:49:52;4.30;99.90
48686;DHT22;34485;51.536;3.816;2023-12-04T10:52:18;4.30;99.90
48686;DHT22;34485;51.536;3.816;2023-12-04T10:54:50;4.20;99.90
48686;DHT22;34485;51.536;3.816;2023-12-04T10:57:33;4.10;99.90
48686;DHT22;34485;51.536;3.816;2023-12-04T11:00:04;4.00;99.90
48686;DHT22;34485;51.536;3.816;2023-12-04T11:02:34;4.00;99.90
48686;DHT22;34485;51.536;3.816;2023-12-04T11:05:08;4.00;99.90
48686;DHT22;34485;51.536;3.816;2023-12-04T11:07:41;4.00;99.90
48686;DHT22;34485;51.536;3.816;2023-12-04T11:10:09;4.00;99.90
48686;DHT22;34485;51.536;3.816;2023-12-04T11:12:40;4.00;99.90
48686;DHT22;34485;51.536;3.816;2023-12-04T11:15:09;4.00;99.90
48686;DHT22;34485;51.536;3.816;2023-12-04T11:17:39;4.00;99.90
48686;DHT22;34485;51.536;3.816;2023-12-04T11:20:11;3.90;99.90
48686;DHT22;34485;51.536;3.816;2023-12-04T11:22:39;3.80;99.90
48686;DHT22;34485;51.536;3.816;2023-12-04T11:25:06;3.80;99.90
48686;DHT22;34485;51.536;3.816;2023-12-04T11:27:34;3.70;99.90
48686;DHT22;34485;51.536;3.816;2023-12-04T11:30:01;3.70;99.90
48686;DHT22;34485;51.536;3.816;2023-12-04T11:32:28;3.60;99.90
48686;DHT22;34485;51.536;3.816;2023-12-04T11:34:56;3.60;99.90
48686;DHT22;34485;51.536;3.816;2023-12-04T11:37:25;3.60;99.90
48686;DHT22;34485;51.536;3.816;2023-12-04T11:39:51;3.60;99.90
48686;DHT22;34485;51.536;3.816;2023-12-04T11:42:24;3.70;99.90
48686;DHT22;34485;51.536;3.816;2023-12-04T11:44:57;3.70;99.90
48686;DHT22;34485;51.536;3.816;2023-12-04T11:47:23;3.70;99.90
48686;DHT22;34485;51.536;3.816;2023-12-04T11:49:49;3.70;99.90
48686;DHT22;34485;51.536;3.816;2023-12-04T11:52:15;3.70;99.90
48686;DHT22;34485;51.536;3.816;2023-12-04T11:54:59;3.70;99.90
48686;DHT22;34485;51.536;3.816;2023-12-04T11:57:25;3.80;99.90
48686;DHT22;34485;51.536;3.816;2023-12-04T12:00:12;3.80;99.90
48686;DHT22;34485;51.536;3.816;2023-12-04T12:05:06;3.80;99.90
48686;DHT22;34485;51.536;3.816;2023-12-04T12:07:33;3.80;99.90
48686;DHT22;34485;51.536;3.816;2023-12-04T12:09:59;3.90;99.90
48686;DHT22;34485;51.536;3.816;2023-12-04T12:12:27;3.80;99.90
48686;DHT22;34485;51.536;3.816;2023-12-04T12:14:53;3.90;99.90
48686;DHT22;34485;51.536;3.816;2023-12-04T12:17:19;4.10;99.90
48686;DHT22;34485;51.536;3.816;2023-12-04T12:19:45;4.00;99.90
48686;DHT22;34485;51.536;3.816;2023-12-04T12:22:11;4.00;99.90
48686;DHT22;34485;51.536;3.816;2023-12-04T12:24:37;4.00;99.90
48686;DHT22;34485;51.536;3.816;2023-12-04T12:29:29;4.00;99.90
48686;DHT22;34485;51.536;3.816;2023-12-04T12:31:55;4.00;99.90
48686;DHT22;34485;51.536;3.816;2023-12-04T12:34:20;3.90;99.90
48686;DHT22;34485;51.536;3.816;2023-12-04T12:36:46;3.90;99.90
48686;DHT22;34485;51.536;3.816;2023-12-04T12:39:13;3.90;99.90
48686;DHT22;34485;51.536;3.816;2023-12-04T12:41:38;3.90;99.90
48686;DHT22;34485;51.536;3.816;2023-12-04T12:44:04;3.90;99.90
48686;DHT22;34485;51.536;3.816;2023-12-04T12:56:16;4.10;99.90
48686;DHT22;34485;51.536;3.816;2023-12-04T12:58:42;4.10;99.90
48686;DHT22;34485;51.536;3.816;2023-12-04T13:01:12;4.10;99.90
48686;DHT22;34485;51.536;3.816;2023-12-04T13:03:38;4.10;99.90
48686;DHT22;34485;51.536;3.816;2023-12-04T13:06:04;4.10;99.90
48686;DHT22;34485;51.536;3.816;2023-12-04T13:08:30;4.10;99.90
48686;DHT22;34485;51.536;3.816;2023-12-04T13:10:55;4.10;99.90
48686;DHT22;34485;51.536;3.816;2023-12-04T13:13:21;4.10;99.90
48686;DHT22;34485;51.536;3.816;2023-12-04T13:15:47;4.10;99.90
48686;DHT22;34485;51.536;3.816;2023-12-04T13:18:13;4.10;99.90
48686;DHT22;34485;51.536;3.816;2023-12-04T13:20:38;4.10;99.90
48686;DHT22;34485;51.536;3.816;2023-12-04T13:23:04;4.10;99.90
48686;DHT22;34485;51.536;3.816;2023-12-04T13:25:30;4.10;99.90
48686;DHT22;34485;51.536;3.816;2023-12-04T13:27:55;4.00;99.90
48686;DHT22;34485;51.536;3.816;2023-12-04T13:30:21;4.00;99.90
48686;DHT22;34485;51.536;3.816;2023-12-04T13:32:47;4.00;99.90
48686;DHT22;34485;51.536;3.816;2023-12-04T13:35:15;3.90;99.90
48686;DHT22;34485;51.536;3.816;2023-12-04T13:37:41;3.90;99.90
48686;DHT22;34485;51.536;3.816;2023-12-04T13:40:07;3.90;99.90
48686;DHT22;34485;51.536;3.816;2023-12-04T13:42:33;3.80;99.90
48686;DHT22;34485;51.536;3.816;2023-12-04T13:45:18;3.90;99.90
48686;DHT22;34485;51.536;3.816;2023-12-04T13:47:46;3.80;99.90
48686;DHT22;34485;51.536;3.816;2023-12-04T13:50:12;3.80;99.90
48686;DHT22;34485;51.536;3.816;2023-12-04T13:52:37;3.80;99.90
48686;DHT22;34485;51.536;3.816;2023-12-04T13:55:05;3.80;99.90
48686;DHT22;34485;51.536;3.816;2023-12-04T13:57:53;3.80;99.90
48686;DHT22;34485;51.536;3.816;2023-12-04T14:00:22;3.80;99.90
48686;DHT22;34485;51.536;3.816;2023-12-04T14:02:48;3.90;99.90
48686;DHT22;34485;51.536;3.816;2023-12-04T14:05:13;3.90;99.90
48686;DHT22;34485;51.536;3.816;2023-12-04T14:07:41;3.80;99.90
48686;DHT22;34485;51.536;3.816;2023-12-04T14:10:09;3.90;99.90
48686;DHT22;34485;51.536;3.816;2023-12-04T14:12:35;3.90;99.90
48686;DHT22;34485;51.536;3.816;2023-12-04T14:15:02;3.90;99.90
48686;DHT22;34485;51.536;3.816;2023-12-04T14:17:29;3.80;99.90
48686;DHT22;34485;51.536;3.816;2023-12-04T14:19:54;3.80;99.90
48686;DHT22;34485;51.536;3.816;2023-12-04T14:22:20;3.80;99.90
48686;DHT22;34485;51.536;3.816;2023-12-04T14:24:46;3.80;99.90
48686;DHT22;34485;51.536;3.816;2023-12-04T14:27:12;3.80;99.90
48686;DHT22;34485;51.536;3.816;2023-12-04T14:29:38;3.80;99.90
48686;DHT22;34485;51.536;3.816;2023-12-04T14:32:06;3.80;99.90
48686;DHT22;34485;51.536;3.816;2023-12-04T14:34:31;3.80;99.90
48686;DHT22;34485;51.536;3.816;2023-12-04T14:36:58;3.80;99.90
48686;DHT22;34485;51.536;3.816;2023-12-04T14:39:24;3.80;99.90
48686;DHT22;34485;51.536;3.816;2023-12-04T14:41:50;3.70;99.90
48686;DHT22;34485;51.536;3.816;2023-12-04T14:44:16;3.70;99.90
48686;DHT22;34485;51.536;3.816;2023-12-04T14:46:42;3.70;99.90
48686;DHT22;34485;51.536;3.816;2023-12-04T14:49:08;3.80;99.90
48686;DHT22;34485;51.536;3.816;2023-12-04T14:51:33;3.70;99.90
48686;DHT22;34485;51.536;3.816;2023-12-04T14:53:59;3.70;99.90
48686;DHT22;34485;51.536;3.816;2023-12-04T14:56:45;3.70;99.90
48686;DHT22;34485;51.536;3.816;2023-12-04T14:59:46;3.60;99.90
48686;DHT22;34485;51.536;3.816;2023-12-04T15:02:30;3.60;99.90
48686;DHT22;34485;51.536;3.816;2023-12-04T15:05:15;3.60;99.90
48686;DHT22;34485;51.536;3.816;2023-12-04T15:07:53;3.60;99.90
48686;DHT22;34485;51.536;3.816;2023-12-04T15:10:37;3.60;99.90
48686;DHT22;34485;51.536;3.816;2023-12-04T15:13:21;3.50;99.90
48686;DHT22;34485;51.536;3.816;2023-12-04T15:16:05;3.50;99.90
48686;DHT22;34485;51.536;3.816;2023-12-04T15:18:40;3.50;99.90
48686;DHT22;34485;51.536;3.816;2023-12-04T15:21:09;3.50;99.90
48686;DHT22;34485;51.536;3.816;2023-12-04T15:23:34;3.50;99.90
48686;DHT22;34485;51.536;3.816;2023-12-04T15:26:01;3.50;99.90
48686;DHT22;34485;51.536;3.816;2023-12-04T15:28:27;3.40;99.90
48686;DHT22;34485;51.536;3.816;2023-12-04T15:30:53;3.40;99.90
48686;DHT22;34485;51.536;3.816;2023-12-04T15:33:18;3.40;99.90
48686;DHT22;34485;51.536;3.816;2023-12-04T15:35:46;3.40;99.90
48686;DHT22;34485;51.536;3.816;2023-12-04T15:38:11;3.40;99.90
48686;DHT22;34485;51.536;3.816;2023-12-04T15:40:37;3.40;99.90
48686;DHT22;34485;51.536;3.816;2023-12-04T15:43:03;3.50;99.90
48686;DHT22;34485;51.536;3.816;2023-12-04T15:45:28;3.40;99.90
48686;DHT22;34485;51.536;3.816;2023-12-04T15:47:54;3.50;99.90
48686;DHT22;34485;51.536;3.816;2023-12-04T15:50:20;3.50;99.90
48686;DHT22;34485;51.536;3.816;2023-12-04T15:52:48;3.50;99.90
48686;DHT22;34485;51.536;3.816;2023-12-04T15:55:14;3.50;99.90
48686;DHT22;34485;51.536;3.816;2023-12-04T15:57:40;3.50;99.90